createdAt,value
2022-12-07T00:00:13.907Z,984.02
2022-12-07T00:01:13.888Z,983.99
2022-12-07T00:02:13.935Z,983.99
2022-12-07T00:03:13.990Z,983.98
2022-12-07T00:04:13.884Z,983.97
2022-12-07T00:05:13.885Z,983.96
2022-12-07T00:06:13.835Z,983.97
2022-12-07T00:07:13.837Z,983.99
2022-12-07T00:08:13.919Z,983.99
2022-12-07T00:09:13.834Z,983.98
2022-12-07T00:10:13.806Z,983.95
2022-12-07T00:11:13.845Z,983.94
2022-12-07T00:12:13.779Z,983.90
2022-12-07T00:13:13.793Z,983.90
2022-12-07T00:14:13.784Z,983.90
2022-12-07T00:15:13.772Z,983.89
2022-12-07T00:16:13.838Z,983.86
2022-12-07T00:17:13.772Z,983.85
2022-12-07T00:18:13.724Z,983.84
2022-12-07T00:19:13.717Z,983.83
2022-12-07T00:20:13.691Z,983.82
2022-12-07T00:21:13.689Z,983.79
2022-12-07T00:22:13.677Z,983.82
2022-12-07T00:23:13.692Z,983.79
2022-12-07T00:24:13.705Z,983.79
2022-12-07T00:25:13.678Z,983.78
2022-12-07T00:26:13.626Z,983.74
2022-12-07T00:27:13.634Z,983.73
2022-12-07T00:28:13.608Z,983.71
2022-12-07T00:29:13.634Z,983.71
2022-12-07T00:30:13.636Z,983.70
2022-12-07T00:31:13.591Z,983.68
2022-12-07T00:32:13.625Z,983.66
2022-12-07T00:33:13.570Z,983.67
2022-12-07T00:34:13.549Z,983.67
2022-12-07T00:35:13.553Z,983.65
2022-12-07T00:36:13.552Z,983.68
2022-12-07T00:37:13.581Z,983.67
2022-12-07T00:38:13.509Z,983.68
2022-12-07T00:39:13.546Z,983.69
2022-12-07T00:40:13.510Z,983.65
2022-12-07T00:41:13.502Z,983.67
2022-12-07T00:42:13.466Z,983.65
2022-12-07T00:43:13.498Z,983.67
2022-12-07T00:44:13.453Z,983.68
2022-12-07T00:45:13.460Z,983.64
2022-12-07T00:46:13.474Z,983.65
2022-12-07T00:47:13.434Z,983.63
2022-12-07T00:48:13.435Z,983.60
2022-12-07T00:49:13.437Z,983.62
2022-12-07T00:50:13.392Z,983.60
2022-12-07T00:51:13.392Z,983.58
2022-12-07T00:52:13.373Z,983.55
2022-12-07T00:53:13.370Z,983.54
2022-12-07T00:54:13.372Z,983.53
2022-12-07T00:55:13.361Z,983.53
2022-12-07T00:56:13.335Z,983.51
2022-12-07T00:57:13.349Z,983.50
2022-12-07T00:58:13.309Z,983.49
2022-12-07T00:59:13.321Z,983.47
2022-12-07T01:00:13.314Z,983.44
2022-12-07T01:01:13.349Z,983.43
2022-12-07T01:02:13.337Z,983.43
2022-12-07T01:03:13.380Z,983.42
2022-12-07T01:04:13.257Z,983.40
2022-12-07T01:05:13.248Z,983.40
2022-12-07T01:06:13.266Z,983.42
2022-12-07T01:07:13.217Z,983.43
2022-12-07T01:08:13.286Z,983.42
2022-12-07T01:09:13.192Z,983.40
2022-12-07T01:10:13.205Z,983.38
2022-12-07T01:11:13.172Z,983.36
2022-12-07T01:12:13.180Z,983.40
2022-12-07T01:13:13.176Z,983.42
2022-12-07T01:14:13.161Z,983.40
2022-12-07T01:15:13.139Z,983.41
2022-12-07T01:16:13.190Z,983.39
2022-12-07T01:17:13.185Z,983.37
2022-12-07T01:18:13.127Z,983.37
2022-12-07T01:19:13.113Z,983.38
2022-12-07T01:20:13.112Z,983.37
2022-12-07T01:21:13.075Z,983.40
2022-12-07T01:22:13.080Z,983.40
2022-12-07T01:23:13.051Z,983.39
2022-12-07T01:24:13.078Z,983.40
2022-12-07T01:25:13.043Z,983.40
2022-12-07T01:26:13.058Z,983.40
2022-12-07T01:27:13.013Z,983.40
2022-12-07T01:28:13.017Z,983.40
2022-12-07T01:29:12.990Z,983.38
2022-12-07T01:30:13.007Z,983.38
2022-12-07T01:31:13.034Z,983.38
2022-12-07T01:32:12.993Z,983.38
2022-12-07T01:33:12.953Z,983.38
2022-12-07T01:34:12.999Z,983.39
2022-12-07T01:35:12.930Z,983.40
2022-12-07T01:36:12.934Z,983.41
2022-12-07T01:37:12.914Z,983.40
2022-12-07T01:38:12.932Z,983.40
2022-12-07T01:39:12.913Z,983.40
2022-12-07T01:40:12.926Z,983.40
2022-12-07T01:41:12.875Z,983.42
2022-12-07T01:42:12.880Z,983.43
2022-12-07T01:43:12.859Z,983.43
2022-12-07T01:44:12.875Z,983.45
2022-12-07T01:45:12.835Z,983.48
2022-12-07T01:46:12.899Z,983.46
2022-12-07T01:47:12.812Z,983.49
2022-12-07T01:48:12.816Z,983.49
2022-12-07T01:49:12.812Z,983.49
2022-12-07T01:50:12.829Z,983.50
2022-12-07T01:51:12.808Z,983.47
2022-12-07T01:52:12.773Z,983.51
2022-12-07T01:53:12.742Z,983.53
2022-12-07T01:54:12.754Z,983.49
2022-12-07T01:55:12.724Z,983.47
2022-12-07T01:56:12.761Z,983.48
2022-12-07T01:57:12.704Z,983.47
2022-12-07T01:58:12.722Z,983.45
2022-12-07T01:59:12.679Z,983.43
2022-12-07T02:00:12.683Z,983.41
2022-12-07T02:01:12.727Z,983.40
2022-12-07T02:02:12.784Z,983.39
2022-12-07T02:03:12.638Z,983.37
2022-12-07T02:04:12.641Z,983.37
2022-12-07T02:05:12.617Z,983.38
2022-12-07T02:06:12.622Z,983.37
2022-12-07T02:07:12.612Z,983.36
2022-12-07T02:08:12.613Z,983.35
2022-12-07T02:09:12.575Z,983.35
2022-12-07T02:10:12.579Z,983.34
2022-12-07T02:11:12.548Z,983.33
2022-12-07T02:12:12.595Z,983.32
2022-12-07T02:13:12.529Z,983.32
2022-12-07T02:14:12.537Z,983.29
2022-12-07T02:15:12.513Z,983.30
2022-12-07T02:16:12.582Z,983.26
2022-12-07T02:17:12.488Z,983.27
2022-12-07T02:18:12.515Z,983.27
2022-12-07T02:19:12.469Z,983.28
2022-12-07T02:20:12.473Z,983.27
2022-12-07T02:21:12.448Z,983.28
2022-12-07T02:22:12.452Z,983.25
2022-12-07T02:23:12.424Z,983.26
2022-12-07T02:24:12.455Z,983.24
2022-12-07T02:25:12.408Z,983.26
2022-12-07T02:26:12.412Z,983.24
2022-12-07T02:27:12.387Z,983.24
2022-12-07T02:28:12.407Z,983.23
2022-12-07T02:29:12.369Z,983.26
2022-12-07T02:30:12.390Z,983.25
2022-12-07T02:31:12.428Z,983.25
2022-12-07T02:32:12.355Z,983.25
2022-12-07T02:33:12.353Z,983.24
2022-12-07T02:34:12.365Z,983.19
2022-12-07T02:35:12.305Z,983.20
2022-12-07T02:36:12.310Z,983.19
2022-12-07T02:37:12.283Z,983.18
2022-12-07T02:38:12.304Z,983.15
2022-12-07T02:39:12.289Z,983.15
2022-12-07T02:40:12.262Z,983.12
2022-12-07T02:41:12.269Z,983.13
2022-12-07T02:42:12.252Z,983.13
2022-12-07T02:43:12.250Z,983.12
2022-12-07T02:44:12.230Z,983.12
2022-12-07T02:45:12.207Z,983.10
2022-12-07T02:46:12.255Z,983.11
2022-12-07T02:47:12.185Z,983.08
2022-12-07T02:48:12.214Z,983.06
2022-12-07T02:49:12.173Z,983.07
2022-12-07T02:50:12.168Z,983.06
2022-12-07T02:51:12.142Z,983.07
2022-12-07T02:52:12.151Z,983.08
2022-12-07T02:53:12.150Z,983.07
2022-12-07T02:54:12.125Z,983.08
2022-12-07T02:55:12.101Z,983.06
2022-12-07T02:56:12.112Z,983.08
2022-12-07T02:57:12.076Z,983.08
2022-12-07T02:58:12.091Z,983.08
2022-12-07T02:59:12.076Z,983.07
2022-12-07T03:00:12.063Z,983.06
2022-12-07T03:01:12.055Z,983.06
2022-12-07T03:02:12.152Z,983.05
2022-12-07T03:03:12.107Z,983.05
2022-12-07T03:04:12.026Z,983.06
2022-12-07T03:05:11.993Z,983.06
2022-12-07T03:06:12.009Z,983.05
2022-12-07T03:07:11.974Z,983.05
2022-12-07T03:08:12.056Z,983.05
2022-12-07T03:09:11.966Z,983.07
2022-12-07T03:10:11.966Z,983.05
2022-12-07T03:11:11.941Z,983.05
2022-12-07T03:12:11.983Z,983.06
2022-12-07T03:13:11.921Z,983.06
2022-12-07T03:14:11.939Z,983.04
2022-12-07T03:15:11.903Z,983.03
2022-12-07T03:16:12.022Z,983.02
2022-12-07T03:17:11.870Z,983.00
2022-12-07T03:18:11.885Z,983.00
2022-12-07T03:19:11.871Z,982.98
2022-12-07T03:20:11.859Z,982.98
2022-12-07T03:21:11.847Z,982.99
2022-12-07T03:22:11.830Z,982.99
2022-12-07T03:23:11.804Z,982.98
2022-12-07T03:24:11.812Z,983.00
2022-12-07T03:25:11.795Z,982.99
2022-12-07T03:26:11.800Z,982.99
2022-12-07T03:27:11.782Z,982.96
2022-12-07T03:28:11.768Z,982.96
2022-12-07T03:29:11.760Z,982.93
2022-12-07T03:30:11.757Z,982.93
2022-12-07T03:31:11.806Z,982.93
2022-12-07T03:32:11.725Z,982.93
2022-12-07T03:33:11.732Z,982.93
2022-12-07T03:34:11.709Z,982.92
2022-12-07T03:35:11.705Z,982.94
2022-12-07T03:36:11.741Z,982.94
2022-12-07T03:37:11.671Z,982.94
2022-12-07T03:38:11.662Z,982.92
2022-12-07T03:39:11.648Z,982.94
2022-12-07T03:40:11.653Z,982.96
2022-12-07T03:41:11.633Z,982.97
2022-12-07T03:42:11.672Z,982.98
2022-12-07T03:43:11.597Z,982.97
2022-12-07T03:44:11.611Z,982.97
2022-12-07T03:45:11.573Z,982.97
2022-12-07T03:46:11.660Z,982.97
2022-12-07T03:47:11.571Z,982.98
2022-12-07T03:48:11.551Z,982.97
2022-12-07T03:49:11.535Z,982.99
2022-12-07T03:50:11.535Z,982.97
2022-12-07T03:51:11.506Z,982.99
2022-12-07T03:52:11.541Z,982.99
2022-12-07T03:53:11.493Z,982.97
2022-12-07T03:54:11.495Z,982.98
2022-12-07T03:55:11.470Z,982.98
2022-12-07T03:56:11.472Z,982.97
2022-12-07T03:57:11.447Z,982.97
2022-12-07T03:58:11.474Z,982.96
2022-12-07T03:59:11.454Z,982.96
2022-12-07T04:00:11.434Z,982.94
2022-12-07T04:01:11.420Z,982.94
2022-12-07T04:02:11.425Z,982.94
2022-12-07T04:03:11.434Z,982.92
2022-12-07T04:04:11.415Z,982.94
2022-12-07T04:05:11.363Z,982.91
2022-12-07T04:06:11.364Z,982.91
2022-12-07T04:07:11.343Z,982.90
2022-12-07T04:08:11.384Z,982.92
2022-12-07T04:09:11.325Z,982.94
2022-12-07T04:10:11.350Z,982.95
2022-12-07T04:11:11.255Z,982.95
2022-12-07T04:12:11.279Z,982.92
2022-12-07T04:13:11.253Z,982.92
2022-12-07T04:14:11.260Z,982.92
2022-12-07T04:15:11.228Z,982.92
2022-12-07T04:16:11.434Z,982.92
2022-12-07T04:17:11.176Z,982.91
2022-12-07T04:18:11.188Z,982.92
2022-12-07T04:19:11.185Z,982.92
2022-12-07T04:20:11.167Z,982.92
2022-12-07T04:21:11.158Z,982.90
2022-12-07T04:22:11.150Z,982.88
2022-12-07T04:23:11.149Z,982.90
2022-12-07T04:24:11.128Z,982.89
2022-12-07T04:25:11.109Z,982.90
2022-12-07T04:26:11.111Z,982.89
2022-12-07T04:27:11.101Z,982.90
2022-12-07T04:28:11.085Z,982.92
2022-12-07T04:29:11.082Z,982.93
2022-12-07T04:30:11.066Z,982.94
2022-12-07T04:31:11.056Z,982.94
2022-12-07T04:32:11.037Z,982.93
2022-12-07T04:33:11.023Z,982.94
2022-12-07T04:34:11.084Z,982.92
2022-12-07T04:35:11.073Z,982.89
2022-12-07T04:36:11.010Z,982.90
2022-12-07T04:37:10.977Z,982.93
2022-12-07T04:38:11.000Z,982.95
2022-12-07T04:39:10.960Z,982.96
2022-12-07T04:40:10.992Z,982.97
2022-12-07T04:41:10.941Z,982.96
2022-12-07T04:42:10.944Z,982.97
2022-12-07T04:43:10.925Z,982.98
2022-12-07T04:44:10.932Z,982.99
2022-12-07T04:45:10.920Z,982.98
2022-12-07T04:46:10.933Z,983.00
2022-12-07T04:47:10.925Z,983.01
2022-12-07T04:48:10.881Z,983.04
2022-12-07T04:49:10.917Z,983.07
2022-12-07T04:50:10.869Z,983.07
2022-12-07T04:51:10.846Z,983.05
2022-12-07T04:52:10.861Z,983.05
2022-12-07T04:53:10.841Z,983.06
2022-12-07T04:54:10.868Z,983.07
2022-12-07T04:55:10.800Z,983.07
2022-12-07T04:56:10.815Z,983.06
2022-12-07T04:57:10.803Z,983.06
2022-12-07T04:58:10.787Z,983.07
2022-12-07T04:59:10.769Z,983.04
2022-12-07T05:00:10.777Z,983.01
2022-12-07T05:01:10.887Z,983.00
2022-12-07T05:02:10.876Z,983.05
2022-12-07T05:03:10.774Z,982.99
2022-12-07T05:04:10.739Z,983.03
2022-12-07T05:05:10.757Z,983.02
2022-12-07T05:06:13.563Z,983.02
2022-12-07T05:07:10.698Z,983.03
2022-12-07T05:08:10.864Z,983.04
2022-12-07T05:09:10.706Z,983.04
2022-12-07T05:10:10.699Z,983.07
2022-12-07T05:11:10.695Z,983.09
2022-12-07T05:12:10.643Z,983.09
2022-12-07T05:13:10.617Z,983.07
2022-12-07T05:14:10.623Z,983.05
2022-12-07T05:15:10.643Z,983.06
2022-12-07T05:16:10.689Z,983.07
2022-12-07T05:17:10.592Z,983.07
2022-12-07T05:18:10.624Z,983.05
2022-12-07T05:19:10.585Z,983.05
2022-12-07T05:20:10.554Z,983.08
2022-12-07T05:21:10.566Z,983.07
2022-12-07T05:22:10.574Z,983.07
2022-12-07T05:23:10.535Z,983.06
2022-12-07T05:24:10.612Z,983.06
2022-12-07T05:25:10.514Z,983.04
2022-12-07T05:26:10.505Z,983.05
2022-12-07T05:27:10.499Z,983.05
2022-12-07T05:28:10.505Z,983.05
2022-12-07T05:29:10.519Z,983.06
2022-12-07T05:30:10.474Z,983.07
2022-12-07T05:31:10.528Z,983.07
2022-12-07T05:32:10.538Z,983.06
2022-12-07T05:33:10.425Z,983.04
2022-12-07T05:34:10.431Z,983.02
2022-12-07T05:35:10.410Z,983.02
2022-12-07T05:36:10.404Z,983.01
2022-12-07T05:37:10.409Z,982.99
2022-12-07T05:38:10.360Z,982.98
2022-12-07T05:39:10.379Z,982.96
2022-12-07T05:40:10.390Z,982.95
2022-12-07T05:41:10.356Z,982.94
2022-12-07T05:42:10.340Z,982.94
2022-12-07T05:43:10.357Z,982.95
2022-12-07T05:44:10.309Z,982.96
2022-12-07T05:45:10.304Z,982.97
2022-12-07T05:46:10.374Z,982.96
2022-12-07T05:47:10.324Z,982.96
2022-12-07T05:48:10.263Z,982.95
2022-12-07T05:49:10.304Z,982.94
2022-12-07T05:50:10.249Z,982.95
2022-12-07T05:51:10.280Z,982.94
2022-12-07T05:52:10.230Z,982.92
2022-12-07T05:53:10.259Z,982.92
2022-12-07T05:54:10.215Z,982.92
2022-12-07T05:55:10.243Z,982.92
2022-12-07T05:56:10.209Z,982.92
2022-12-07T05:57:10.187Z,982.94
2022-12-07T05:58:10.163Z,982.94
2022-12-07T05:59:10.184Z,982.94
2022-12-07T06:00:10.153Z,982.93
2022-12-07T06:01:10.176Z,982.91
2022-12-07T06:02:10.280Z,982.91
2022-12-07T06:03:10.299Z,982.91
2022-12-07T06:04:10.108Z,982.87
2022-12-07T06:05:10.113Z,982.83
2022-12-07T06:06:10.177Z,982.81
2022-12-07T06:07:10.114Z,982.81
2022-12-07T06:08:10.150Z,982.79
2022-12-07T06:09:10.094Z,982.79
2022-12-07T06:10:10.071Z,982.79
2022-12-07T06:11:10.048Z,982.81
2022-12-07T06:12:10.027Z,982.79
2022-12-07T06:13:10.062Z,982.82
2022-12-07T06:14:10.007Z,982.84
2022-12-07T06:15:10.003Z,982.82
2022-12-07T06:16:09.991Z,982.82
2022-12-07T06:17:09.988Z,982.81
2022-12-07T06:18:09.972Z,982.82
2022-12-07T06:19:09.979Z,982.81
2022-12-07T06:20:09.940Z,982.82
2022-12-07T06:21:09.942Z,982.80
2022-12-07T06:22:09.922Z,982.80
2022-12-07T06:23:09.931Z,982.81
2022-12-07T06:24:09.899Z,982.81
2022-12-07T06:25:10.009Z,982.83
2022-12-07T06:26:09.898Z,982.84
2022-12-07T06:27:09.881Z,982.85
2022-12-07T06:28:09.857Z,982.86
2022-12-07T06:29:09.861Z,982.87
2022-12-07T06:30:09.855Z,982.86
2022-12-07T06:31:13.801Z,982.85
2022-12-07T06:32:09.904Z,982.85
2022-12-07T06:33:09.829Z,982.86
2022-12-07T06:34:09.811Z,982.86
2022-12-07T06:35:09.801Z,982.85
2022-12-07T06:36:09.806Z,982.86
2022-12-07T06:37:09.792Z,982.86
2022-12-07T06:38:09.762Z,982.87
2022-12-07T06:39:09.765Z,982.89
2022-12-07T06:40:09.746Z,982.90
2022-12-07T06:41:09.791Z,982.92
2022-12-07T06:42:09.794Z,982.96
2022-12-07T06:43:09.787Z,982.98
2022-12-07T06:44:09.752Z,982.98
2022-12-07T06:45:09.772Z,982.98
2022-12-07T06:46:09.771Z,982.97
2022-12-07T06:47:39.748Z,982.96
2022-12-07T06:48:09.735Z,982.93
2022-12-07T06:49:09.709Z,982.95
2022-12-07T06:50:09.689Z,982.95
2022-12-07T06:51:09.704Z,982.96
2022-12-07T06:52:09.666Z,982.99
2022-12-07T06:53:09.717Z,982.99
2022-12-07T06:54:09.665Z,983.00
2022-12-07T06:55:09.672Z,983.01
2022-12-07T06:56:09.629Z,983.01
2022-12-07T06:57:09.651Z,983.02
2022-12-07T06:58:09.611Z,983.01
2022-12-07T06:59:09.615Z,983.01
2022-12-07T07:00:09.619Z,983.01
2022-12-07T07:01:09.677Z,983.00
2022-12-07T07:02:09.650Z,982.99
2022-12-07T07:03:09.603Z,983.00
2022-12-07T07:04:09.622Z,983.00
2022-12-07T07:05:09.557Z,983.02
2022-12-07T07:06:09.552Z,983.04
2022-12-07T07:07:09.531Z,983.06
2022-12-07T07:08:25.085Z,983.05
2022-12-07T07:09:09.636Z,983.05
2022-12-07T07:10:09.496Z,983.04
2022-12-07T07:11:09.535Z,983.08
2022-12-07T07:12:09.470Z,983.09
2022-12-07T07:13:09.484Z,983.07
2022-12-07T07:14:09.502Z,983.08
2022-12-07T07:15:09.491Z,983.09
2022-12-07T07:16:09.461Z,983.07
2022-12-07T07:17:09.499Z,983.11
2022-12-07T07:18:09.407Z,983.13
2022-12-07T07:19:09.418Z,983.12
2022-12-07T07:20:09.391Z,983.13
2022-12-07T07:21:09.395Z,983.13
2022-12-07T07:22:09.397Z,983.11
2022-12-07T07:23:09.376Z,983.12
2022-12-07T07:24:09.351Z,983.14
2022-12-07T07:25:09.384Z,983.13
2022-12-07T07:26:09.334Z,983.14
2022-12-07T07:27:09.334Z,983.13
2022-12-07T07:28:09.329Z,983.15
2022-12-07T07:29:09.313Z,983.16
2022-12-07T07:30:09.291Z,983.16
2022-12-07T07:31:09.326Z,983.17
2022-12-07T07:32:09.280Z,983.18
2022-12-07T07:33:09.308Z,983.21
2022-12-07T07:34:09.250Z,983.20
2022-12-07T07:35:09.253Z,983.18
2022-12-07T07:36:09.236Z,983.18
2022-12-07T07:37:09.243Z,983.18
2022-12-07T07:38:09.222Z,983.22
2022-12-07T07:39:09.247Z,983.23
2022-12-07T07:40:09.193Z,983.24
2022-12-07T07:41:09.203Z,983.22
2022-12-07T07:42:09.168Z,983.21
2022-12-07T07:43:09.135Z,983.20
2022-12-07T07:44:09.096Z,983.20
2022-12-07T07:45:09.128Z,983.20
2022-12-07T07:46:09.130Z,983.22
2022-12-07T07:47:09.081Z,983.21
2022-12-07T07:48:09.059Z,983.22
2022-12-07T07:49:09.112Z,983.23
2022-12-07T07:50:09.075Z,983.22
2022-12-07T07:51:09.047Z,983.21
2022-12-07T07:52:09.039Z,983.22
2022-12-07T07:53:09.033Z,983.22
2022-12-07T07:54:09.000Z,983.23
2022-12-07T07:55:09.003Z,983.25
2022-12-07T07:56:09.208Z,983.27
2022-12-07T07:57:09.040Z,983.27
2022-12-07T07:58:09.040Z,983.29
2022-12-07T07:59:09.018Z,983.28
2022-12-07T08:00:09.145Z,983.27
2022-12-07T08:01:09.116Z,983.26
2022-12-07T08:02:08.968Z,983.25
2022-12-07T08:03:08.937Z,983.24
2022-12-07T08:04:08.918Z,983.24
2022-12-07T08:05:09.110Z,983.24
2022-12-07T08:06:08.898Z,983.24
2022-12-07T08:07:08.897Z,983.27
2022-12-07T08:08:08.912Z,983.30
2022-12-07T08:09:08.913Z,983.30
2022-12-07T08:10:08.894Z,983.28
2022-12-07T08:11:08.928Z,983.26
2022-12-07T08:12:08.874Z,983.28
2022-12-07T08:13:08.893Z,983.26
2022-12-07T08:14:08.850Z,983.25
2022-12-07T08:15:08.810Z,983.23
2022-12-07T08:16:08.843Z,983.25
2022-12-07T08:17:08.823Z,983.24
2022-12-07T08:18:08.774Z,983.21
2022-12-07T08:19:08.773Z,983.20
2022-12-07T08:20:08.787Z,983.19
2022-12-07T08:21:08.989Z,983.19
2022-12-07T08:22:08.794Z,983.20
2022-12-07T08:23:08.816Z,983.22
2022-12-07T08:24:08.749Z,983.23
2022-12-07T08:25:08.780Z,983.25
2022-12-07T08:26:08.715Z,983.27
2022-12-07T08:27:08.744Z,983.26
2022-12-07T08:28:08.651Z,983.27
2022-12-07T08:29:08.672Z,983.27
2022-12-07T08:30:08.659Z,983.26
2022-12-07T08:31:08.717Z,983.26
2022-12-07T08:32:09.837Z,983.25
2022-12-07T08:33:08.673Z,983.26
2022-12-07T08:34:08.653Z,983.27
2022-12-07T08:35:08.647Z,983.27
2022-12-07T08:36:08.578Z,983.27
2022-12-07T08:37:08.581Z,983.27
2022-12-07T08:38:08.604Z,983.27
2022-12-07T08:39:31.006Z,983.26
2022-12-07T08:40:08.566Z,983.25
2022-12-07T08:41:08.535Z,983.25
2022-12-07T08:42:08.575Z,983.21
2022-12-07T08:43:08.575Z,983.24
2022-12-07T08:44:08.504Z,983.27
2022-12-07T08:45:08.506Z,983.29
2022-12-07T08:46:08.540Z,983.29
2022-12-07T08:47:08.490Z,983.30
2022-12-07T08:48:08.465Z,983.31
2022-12-07T08:49:08.474Z,983.32
2022-12-07T08:50:08.481Z,983.33
2022-12-07T08:51:08.436Z,983.35
2022-12-07T08:52:08.415Z,983.34
2022-12-07T08:53:08.414Z,983.34
2022-12-07T08:54:08.401Z,983.37
2022-12-07T08:55:08.463Z,983.36
2022-12-07T08:56:08.407Z,983.34
2022-12-07T08:57:08.396Z,983.36
2022-12-07T08:58:08.379Z,983.31
2022-12-07T08:59:08.372Z,983.30
2022-12-07T09:00:08.342Z,983.30
2022-12-07T09:01:08.414Z,983.29
2022-12-07T09:02:08.457Z,983.30
2022-12-07T09:03:08.315Z,983.32
2022-12-07T09:04:08.297Z,983.32
2022-12-07T09:05:13.229Z,983.34
2022-12-07T09:06:08.388Z,983.37
2022-12-07T09:07:08.360Z,983.40
2022-12-07T09:08:08.302Z,983.42
2022-12-07T09:09:08.273Z,983.41
2022-12-07T09:10:08.254Z,983.46
2022-12-07T09:11:08.247Z,983.44
2022-12-07T09:12:08.204Z,983.47
2022-12-07T09:13:08.232Z,983.48
2022-12-07T09:14:08.238Z,983.49
2022-12-07T09:15:08.215Z,983.48
2022-12-07T09:16:08.228Z,983.50
2022-12-07T09:17:08.189Z,983.51
2022-12-07T09:18:08.148Z,983.53
2022-12-07T09:19:08.192Z,983.52
2022-12-07T09:20:08.132Z,983.52
2022-12-07T09:21:08.155Z,983.52
2022-12-07T09:22:08.126Z,983.53
2022-12-07T09:23:08.128Z,983.53
2022-12-07T09:24:08.136Z,983.55
2022-12-07T09:25:08.179Z,983.54
2022-12-07T09:26:10.695Z,983.53
2022-12-07T09:27:08.094Z,983.53
2022-12-07T09:28:08.044Z,983.54
2022-12-07T09:29:08.134Z,983.54
2022-12-07T09:30:08.081Z,983.54
2022-12-07T09:31:23.383Z,983.54
2022-12-07T09:32:11.640Z,983.58
2022-12-07T09:33:08.030Z,983.54
2022-12-07T09:34:08.031Z,983.55
2022-12-07T09:35:08.019Z,983.52
2022-12-07T09:36:08.044Z,983.51
2022-12-07T09:37:07.957Z,983.49
2022-12-07T09:38:07.976Z,983.49
2022-12-07T09:39:07.961Z,983.49
2022-12-07T09:40:08.152Z,983.48
2022-12-07T09:41:07.918Z,983.48
2022-12-07T09:42:07.930Z,983.48
2022-12-07T09:43:07.933Z,983.46
2022-12-07T09:44:07.918Z,983.45
2022-12-07T09:45:07.898Z,983.45
2022-12-07T09:46:07.923Z,983.45
2022-12-07T09:47:07.870Z,983.46
2022-12-07T09:48:07.868Z,983.46
2022-12-07T09:49:07.861Z,983.45
2022-12-07T09:50:07.845Z,983.43
2022-12-07T09:51:07.836Z,983.42
2022-12-07T09:52:07.836Z,983.38
2022-12-07T09:53:07.804Z,983.37
2022-12-07T09:54:07.798Z,983.38
2022-12-07T09:55:07.849Z,983.38
2022-12-07T09:56:07.812Z,983.39
2022-12-07T09:57:07.757Z,983.36
2022-12-07T09:58:07.765Z,983.33
2022-12-07T09:59:07.755Z,983.31
2022-12-07T10:00:07.792Z,983.31
2022-12-07T10:01:07.743Z,983.29
2022-12-07T10:02:07.796Z,983.29
2022-12-07T10:03:07.698Z,983.29
2022-12-07T10:04:07.705Z,983.28
2022-12-07T10:05:08.073Z,983.27
2022-12-07T10:06:07.705Z,983.24
2022-12-07T10:07:07.657Z,983.21
2022-12-07T10:08:07.696Z,983.21
2022-12-07T10:09:07.637Z,983.23
2022-12-07T10:10:07.648Z,983.22
2022-12-07T10:11:07.625Z,983.23
2022-12-07T10:12:07.649Z,983.24
2022-12-07T10:13:07.616Z,983.22
2022-12-07T10:14:07.609Z,983.23
2022-12-07T10:15:08.499Z,983.22
2022-12-07T10:16:07.758Z,983.19
2022-12-07T10:17:07.555Z,983.20
2022-12-07T10:18:07.742Z,983.18
2022-12-07T10:19:07.535Z,983.17
2022-12-07T10:20:07.545Z,983.17
2022-12-07T10:21:07.514Z,983.16
2022-12-07T10:22:07.526Z,983.15
2022-12-07T10:23:07.506Z,983.13
2022-12-07T10:24:07.533Z,983.13
2022-12-07T10:25:07.486Z,983.11
2022-12-07T10:26:07.490Z,983.12
2022-12-07T10:27:07.459Z,983.13
2022-12-07T10:28:07.487Z,983.12
2022-12-07T10:29:07.446Z,983.12
2022-12-07T10:30:07.445Z,983.10
2022-12-07T10:31:07.454Z,983.11
2022-12-07T10:32:07.425Z,983.09
2022-12-07T10:33:07.397Z,983.09
2022-12-07T10:34:07.428Z,983.09
2022-12-07T10:35:07.607Z,983.11
2022-12-07T10:36:07.401Z,983.13
2022-12-07T10:37:07.364Z,983.14
2022-12-07T10:38:07.381Z,983.14
2022-12-07T10:39:07.362Z,983.16
2022-12-07T10:40:07.345Z,983.14
2022-12-07T10:41:07.359Z,983.14
2022-12-07T10:42:07.332Z,983.18
2022-12-07T10:43:07.328Z,983.13
2022-12-07T10:44:07.317Z,983.13
2022-12-07T10:45:07.574Z,983.13
2022-12-07T10:46:13.041Z,983.12
2022-12-07T10:47:07.381Z,983.12
2022-12-07T10:48:07.274Z,983.08
2022-12-07T10:49:07.249Z,983.11
2022-12-07T10:50:07.249Z,983.12
2022-12-07T10:51:07.245Z,983.10
2022-12-07T10:52:07.256Z,983.14
2022-12-07T10:53:07.202Z,983.14
2022-12-07T10:54:07.273Z,983.11
2022-12-07T10:55:07.239Z,983.10
2022-12-07T10:56:07.251Z,983.09
2022-12-07T10:57:07.224Z,983.05
2022-12-07T10:58:07.174Z,983.05
2022-12-07T10:59:07.148Z,983.02
2022-12-07T11:00:07.143Z,983.00
2022-12-07T11:01:07.198Z,982.98
2022-12-07T11:02:07.180Z,982.97
2022-12-07T11:03:07.129Z,982.95
2022-12-07T11:04:07.109Z,982.93
2022-12-07T11:05:07.088Z,982.92
2022-12-07T11:06:07.094Z,982.89
2022-12-07T11:07:07.094Z,982.88
2022-12-07T11:08:07.121Z,982.86
2022-12-07T11:09:07.173Z,982.86
2022-12-07T11:10:18.685Z,982.83
2022-12-07T11:11:07.032Z,982.79
2022-12-07T11:12:07.046Z,982.77
2022-12-07T11:13:06.997Z,982.74
2022-12-07T11:14:07.023Z,982.72
2022-12-07T11:15:06.981Z,982.71
2022-12-07T11:16:07.043Z,982.70
2022-12-07T11:17:06.967Z,982.69
2022-12-07T11:18:07.007Z,982.69
2022-12-07T11:19:06.950Z,982.68
2022-12-07T11:20:06.953Z,982.69
2022-12-07T11:21:06.953Z,982.67
2022-12-07T11:22:06.934Z,982.66
2022-12-07T11:23:06.963Z,982.66
2022-12-07T11:24:06.908Z,982.63
2022-12-07T11:25:06.910Z,982.69
2022-12-07T11:26:06.916Z,982.70
2022-12-07T11:27:06.862Z,982.68
2022-12-07T11:28:06.879Z,982.68
2022-12-07T11:29:06.842Z,982.70
2022-12-07T11:30:06.938Z,982.70
2022-12-07T11:31:06.890Z,982.68
2022-12-07T11:32:06.901Z,982.68
2022-12-07T11:33:06.808Z,982.70
2022-12-07T11:34:06.808Z,982.69
2022-12-07T11:35:06.813Z,982.67
2022-12-07T11:36:06.842Z,982.68
2022-12-07T11:37:06.817Z,982.68
2022-12-07T11:38:06.851Z,982.70
2022-12-07T11:39:06.848Z,982.71
2022-12-07T11:40:06.749Z,982.65
2022-12-07T11:41:06.719Z,982.65
2022-12-07T11:42:06.725Z,982.62
2022-12-07T11:43:06.702Z,982.62
2022-12-07T11:44:06.733Z,982.61
2022-12-07T11:45:06.704Z,982.53
2022-12-07T11:46:06.683Z,982.57
2022-12-07T11:47:06.785Z,982.55
2022-12-07T11:48:06.667Z,982.55
2022-12-07T11:49:06.710Z,982.53
2022-12-07T11:50:06.696Z,982.58
2022-12-07T11:51:06.670Z,982.54
2022-12-07T11:52:06.674Z,982.54
2022-12-07T11:53:06.651Z,982.52
2022-12-07T11:54:06.658Z,982.51
2022-12-07T11:55:06.596Z,982.48
2022-12-07T11:56:06.575Z,982.46
2022-12-07T11:57:06.548Z,982.44
2022-12-07T11:58:06.559Z,982.41
2022-12-07T11:59:06.523Z,982.42
2022-12-07T12:00:06.530Z,982.41
2022-12-07T12:01:06.522Z,982.38
2022-12-07T12:02:06.583Z,982.36
2022-12-07T12:03:06.597Z,982.36
2022-12-07T12:04:06.546Z,982.39
2022-12-07T12:05:06.555Z,982.39
2022-12-07T12:06:06.486Z,982.37
2022-12-07T12:10:06.882Z,982.35
2022-12-07T12:11:06.422Z,982.35
2022-12-07T12:15:06.538Z,982.36
2022-12-07T12:16:06.456Z,982.34
2022-12-07T12:17:06.359Z,982.34
2022-12-07T12:18:06.367Z,982.33
2022-12-07T12:19:06.316Z,982.33
2022-12-07T12:20:06.339Z,982.32
2022-12-07T12:21:06.358Z,982.33
2022-12-07T12:22:06.352Z,982.33
2022-12-07T12:23:06.321Z,982.33
2022-12-07T12:24:06.294Z,982.30
2022-12-07T12:25:06.247Z,982.32
2022-12-07T12:26:06.343Z,982.32
2022-12-07T12:27:06.221Z,982.33
2022-12-07T12:28:06.222Z,982.31
2022-12-07T12:29:06.233Z,982.34
2022-12-07T12:30:06.217Z,982.33
2022-12-07T12:31:06.181Z,982.32
2022-12-07T12:32:06.255Z,982.32
2022-12-07T12:33:06.156Z,982.32
2022-12-07T12:34:06.184Z,982.30